sensor_id;sensor_type;location;lat;lon;timestamp;temperature;humidity
18882;DHT22;9573;50.948;11.600;2023-05-09T00:01:40;8.20;99.90
18882;DHT22;9573;50.948;11.600;2023-05-09T00:04:08;8.20;99.90
18882;DHT22;9573;50.948;11.600;2023-05-09T00:06:37;8.10;99.90
18882;DHT22;9573;50.948;11.600;2023-05-09T00:09:04;8.00;99.90
18882;DHT22;9573;50.948;11.600;2023-05-09T00:11:31;8.00;99.90
18882;DHT22;9573;50.948;11.600;2023-05-09T00:13:58;7.90;99.90
18882;DHT22;9573;50.948;11.600;2023-05-09T00:16:25;7.90;99.90
18882;DHT22;9573;50.948;11.600;2023-05-09T00:18:53;7.80;99.90
18882;DHT22;9573;50.948;11.600;2023-05-09T00:21:20;7.80;99.90
18882;DHT22;9573;50.948;11.600;2023-05-09T00:23:48;7.80;99.90
18882;DHT22;9573;50.948;11.600;2023-05-09T00:26:16;7.80;99.90
18882;DHT22;9573;50.948;11.600;2023-05-09T00:28:43;7.70;99.90
18882;DHT22;9573;50.948;11.600;2023-05-09T00:31:10;7.70;99.90
18882;DHT22;9573;50.948;11.600;2023-05-09T00:33:37;7.70;99.90
18882;DHT22;9573;50.948;11.600;2023-05-09T00:36:05;8.20;99.90
18882;DHT22;9573;50.948;11.600;2023-05-09T00:38:32;7.50;99.90
18882;DHT22;9573;50.948;11.600;2023-05-09T00:41:01;7.50;99.90
18882;DHT22;9573;50.948;11.600;2023-05-09T00:43:29;7.50;99.90
18882;DHT22;9573;50.948;11.600;2023-05-09T00:45:56;7.40;99.90
18882;DHT22;9573;50.948;11.600;2023-05-09T00:48:23;7.40;99.90
18882;DHT22;9573;50.948;11.600;2023-05-09T00:50:50;7.30;99.90
18882;DHT22;9573;50.948;11.600;2023-05-09T00:53:18;7.30;99.90
18882;DHT22;9573;50.948;11.600;2023-05-09T00:55:45;7.30;99.90
18882;DHT22;9573;50.948;11.600;2023-05-09T00:58:14;7.30;99.90
18882;DHT22;9573;50.948;11.600;2023-05-09T01:00:41;7.20;99.90
18882;DHT22;9573;50.948;11.600;2023-05-09T01:03:09;7.20;99.90
18882;DHT22;9573;50.948;11.600;2023-05-09T01:05:42;7.20;99.90
18882;DHT22;9573;50.948;11.600;2023-05-09T01:08:20;7.10;99.90
18882;DHT22;9573;50.948;11.600;2023-05-09T01:11:03;7.10;99.90
18882;DHT22;9573;50.948;11.600;2023-05-09T01:13:48;7.00;99.90
18882;DHT22;9573;50.948;11.600;2023-05-09T01:16:25;7.00;99.90
18882;DHT22;9573;50.948;11.600;2023-05-09T01:19:04;7.00;99.90
18882;DHT22;9573;50.948;11.600;2023-05-09T01:21:39;6.90;99.90
18882;DHT22;9573;50.948;11.600;2023-05-09T01:24:32;6.90;99.90
18882;DHT22;9573;50.948;11.600;2023-05-09T01:27:31;6.80;99.90
18882;DHT22;9573;50.948;11.600;2023-05-09T01:30:11;6.80;99.90
18882;DHT22;9573;50.948;11.600;2023-05-09T01:32:42;6.80;99.90
18882;DHT22;9573;50.948;11.600;2023-05-09T01:35:12;6.70;99.90
18882;DHT22;9573;50.948;11.600;2023-05-09T01:37:41;6.70;99.90
18882;DHT22;9573;50.948;11.600;2023-05-09T01:40:13;6.70;99.90
18882;DHT22;9573;50.948;11.600;2023-05-09T01:42:43;6.70;99.90
18882;DHT22;9573;50.948;11.600;2023-05-09T01:45:14;6.60;99.90
18882;DHT22;9573;50.948;11.600;2023-05-09T01:47:42;6.60;99.90
18882;DHT22;9573;50.948;11.600;2023-05-09T01:50:10;6.60;99.90
18882;DHT22;9573;50.948;11.600;2023-05-09T01:52:39;6.60;99.90
18882;DHT22;9573;50.948;11.600;2023-05-09T01:55:09;6.50;99.90
18882;DHT22;9573;50.948;11.600;2023-05-09T01:57:37;6.50;99.90
18882;DHT22;9573;50.948;11.600;2023-05-09T02:00:07;6.50;99.90
18882;DHT22;9573;50.948;11.600;2023-05-09T02:02:36;6.50;99.90
18882;DHT22;9573;50.948;11.600;2023-05-09T02:05:05;6.40;99.90
18882;DHT22;9573;50.948;11.600;2023-05-09T02:07:35;6.30;99.90
18882;DHT22;9573;50.948;11.600;2023-05-09T02:10:03;6.40;99.90
18882;DHT22;9573;50.948;11.600;2023-05-09T02:12:33;6.30;99.90
18882;DHT22;9573;50.948;11.600;2023-05-09T02:15:00;6.30;99.90
18882;DHT22;9573;50.948;11.600;2023-05-09T02:17:27;6.30;99.90
18882;DHT22;9573;50.948;11.600;2023-05-09T02:19:56;6.30;99.90
18882;DHT22;9573;50.948;11.600;2023-05-09T02:22:23;6.20;99.90
18882;DHT22;9573;50.948;11.600;2023-05-09T02:24:51;6.20;99.90
18882;DHT22;9573;50.948;11.600;2023-05-09T02:27:18;6.20;99.90
18882;DHT22;9573;50.948;11.600;2023-05-09T02:29:49;6.20;99.90
18882;DHT22;9573;50.948;11.600;2023-05-09T02:32:21;6.20;99.90
18882;DHT22;9573;50.948;11.600;2023-05-09T02:34:52;6.10;99.90
18882;DHT22;9573;50.948;11.600;2023-05-09T02:37:21;6.10;99.90
18882;DHT22;9573;50.948;11.600;2023-05-09T02:39:49;6.10;99.90
18882;DHT22;9573;50.948;11.600;2023-05-09T02:42:20;6.10;99.90
18882;DHT22;9573;50.948;11.600;2023-05-09T02:44:49;6.10;99.90
18882;DHT22;9573;50.948;11.600;2023-05-09T02:47:16;6.00;99.90
18882;DHT22;9573;50.948;11.600;2023-05-09T02:49:44;6.00;99.90
18882;DHT22;9573;50.948;11.600;2023-05-09T02:52:11;6.00;99.90
18882;DHT22;9573;50.948;11.600;2023-05-09T02:54:39;6.10;99.90
18882;DHT22;9573;50.948;11.600;2023-05-09T02:57:06;6.00;99.90
18882;DHT22;9573;50.948;11.600;2023-05-09T02:59:34;6.00;99.90
18882;DHT22;9573;50.948;11.600;2023-05-09T03:02:01;6.00;99.90
18882;DHT22;9573;50.948;11.600;2023-05-09T03:04:28;6.80;99.90
18882;DHT22;9573;50.948;11.600;2023-05-09T03:06:55;6.00;99.90
18882;DHT22;9573;50.948;11.600;2023-05-09T03:09:22;6.00;99.90
18882;DHT22;9573;50.948;11.600;2023-05-09T03:11:50;5.90;99.90
18882;DHT22;9573;50.948;11.600;2023-05-09T03:14:17;5.90;99.90
18882;DHT22;9573;50.948;11.600;2023-05-09T03:16:44;5.90;99.90
18882;DHT22;9573;50.948;11.600;2023-05-09T03:19:11;5.90;99.90
18882;DHT22;9573;50.948;11.600;2023-05-09T03:21:38;5.90;99.90
18882;DHT22;9573;50.948;11.600;2023-05-09T03:24:06;5.90;99.90
18882;DHT22;9573;50.948;11.600;2023-05-09T03:26:34;5.90;99.90
18882;DHT22;9573;50.948;11.600;2023-05-09T03:29:06;5.90;99.90
18882;DHT22;9573;50.948;11.600;2023-05-09T03:31:34;5.80;99.90
18882;DHT22;9573;50.948;11.600;2023-05-09T03:34:01;5.80;99.90
18882;DHT22;9573;50.948;11.600;2023-05-09T03:36:28;5.90;99.90
18882;DHT22;9573;50.948;11.600;2023-05-09T03:38:56;5.90;99.90
18882;DHT22;9573;50.948;11.600;2023-05-09T03:41:23;5.90;99.90
18882;DHT22;9573;50.948;11.600;2023-05-09T03:43:50;5.90;99.90
18882;DHT22;9573;50.948;11.600;2023-05-09T03:46:19;5.90;99.90
18882;DHT22;9573;50.948;11.600;2023-05-09T03:48:46;5.90;99.90
18882;DHT22;9573;50.948;11.600;2023-05-09T03:51:13;6.00;99.90
18882;DHT22;9573;50.948;11.600;2023-05-09T03:53:40;6.00;99.90
18882;DHT22;9573;50.948;11.600;2023-05-09T03:56:07;6.00;99.90
18882;DHT22;9573;50.948;11.600;2023-05-09T03:58:35;6.00;99.90
18882;DHT22;9573;50.948;11.600;2023-05-09T04:01:02;6.10;99.90
18882;DHT22;9573;50.948;11.600;2023-05-09T04:03:30;6.10;99.90
18882;DHT22;9573;50.948;11.600;2023-05-09T04:05:57;6.20;99.90
18882;DHT22;9573;50.948;11.600;2023-05-09T04:08:26;6.20;99.90
18882;DHT22;9573;50.948;11.600;2023-05-09T04:10:53;6.30;99.90
18882;DHT22;9573;50.948;11.600;2023-05-09T04:13:20;6.40;99.90
18882;DHT22;9573;50.948;11.600;2023-05-09T04:15:47;6.50;99.90
18882;DHT22;9573;50.948;11.600;2023-05-09T04:18:14;6.60;99.90
18882;DHT22;9573;50.948;11.600;2023-05-09T04:20:42;6.70;99.90
18882;DHT22;9573;50.948;11.600;2023-05-09T04:23:09;6.80;99.90
18882;DHT22;9573;50.948;11.600;2023-05-09T04:25:36;6.90;99.90
18882;DHT22;9573;50.948;11.600;2023-05-09T04:28:03;7.00;99.90
18882;DHT22;9573;50.948;11.600;2023-05-09T04:30:30;7.10;99.90
18882;DHT22;9573;50.948;11.600;2023-05-09T04:32:58;7.40;99.90
18882;DHT22;9573;50.948;11.600;2023-05-09T04:35:25;8.10;99.90
18882;DHT22;9573;50.948;11.600;2023-05-09T04:37:53;8.70;99.90
18882;DHT22;9573;50.948;11.600;2023-05-09T04:40:20;9.00;99.90
18882;DHT22;9573;50.948;11.600;2023-05-09T04:42:48;9.10;99.90
18882;DHT22;9573;50.948;11.600;2023-05-09T04:45:15;9.00;99.90
18882;DHT22;9573;50.948;11.600;2023-05-09T04:47:42;9.30;99.90
18882;DHT22;9573;50.948;11.600;2023-05-09T04:50:10;10.70;99.90
18882;DHT22;9573;50.948;11.600;2023-05-09T04:52:38;12.40;99.90
18882;DHT22;9573;50.948;11.600;2023-05-09T04:55:07;14.00;99.90
18882;DHT22;9573;50.948;11.600;2023-05-09T04:57:35;15.90;99.90
18882;DHT22;9573;50.948;11.600;2023-05-09T05:00:02;18.20;99.90
18882;DHT22;9573;50.948;11.600;2023-05-09T05:02:31;20.30;99.90
18882;DHT22;9573;50.948;11.600;2023-05-09T05:04:59;21.90;99.90
18882;DHT22;9573;50.948;11.600;2023-05-09T05:07:26;23.00;98.10
18882;DHT22;9573;50.948;11.600;2023-05-09T05:09:53;23.70;93.40
18882;DHT22;9573;50.948;11.600;2023-05-09T05:12:21;24.30;89.70
18882;DHT22;9573;50.948;11.600;2023-05-09T05:14:51;25.00;84.40
18882;DHT22;9573;50.948;11.600;2023-05-09T05:17:18;25.80;79.30
18882;DHT22;9573;50.948;11.600;2023-05-09T05:19:45;26.40;76.60
18882;DHT22;9573;50.948;11.600;2023-05-09T05:22:12;26.50;73.50
18882;DHT22;9573;50.948;11.600;2023-05-09T05:24:39;27.00;71.30
18882;DHT22;9573;50.948;11.600;2023-05-09T05:27:07;28.00;68.90
18882;DHT22;9573;50.948;11.600;2023-05-09T05:29:36;28.50;65.80
18882;DHT22;9573;50.948;11.600;2023-05-09T05:32:04;28.70;63.60
18882;DHT22;9573;50.948;11.600;2023-05-09T05:34:31;28.90;62.80
18882;DHT22;9573;50.948;11.600;2023-05-09T05:36:58;29.40;60.90
18882;DHT22;9573;50.948;11.600;2023-05-09T05:39:25;29.10;59.70
18882;DHT22;9573;50.948;11.600;2023-05-09T05:41:52;29.90;58.50
18882;DHT22;9573;50.948;11.600;2023-05-09T05:44:19;30.40;56.70
18882;DHT22;9573;50.948;11.600;2023-05-09T05:46:48;31.00;56.50
18882;DHT22;9573;50.948;11.600;2023-05-09T05:49:15;31.80;54.80
18882;DHT22;9573;50.948;11.600;2023-05-09T05:51:42;32.10;54.40
18882;DHT22;9573;50.948;11.600;2023-05-09T05:54:09;32.50;53.90
18882;DHT22;9573;50.948;11.600;2023-05-09T05:56:36;32.70;53.20
18882;DHT22;9573;50.948;11.600;2023-05-09T05:59:03;32.80;50.80
18882;DHT22;9573;50.948;11.600;2023-05-09T06:01:30;33.10;50.80
18882;DHT22;9573;50.948;11.600;2023-05-09T06:03:58;33.60;50.30
18882;DHT22;9573;50.948;11.600;2023-05-09T06:06:26;34.70;48.90
18882;DHT22;9573;50.948;11.600;2023-05-09T06:08:53;35.30;48.40
18882;DHT22;9573;50.948;11.600;2023-05-09T06:11:20;35.40;47.50
18882;DHT22;9573;50.948;11.600;2023-05-09T06:13:47;35.60;45.90
18882;DHT22;9573;50.948;11.600;2023-05-09T06:16:14;35.70;45.40
18882;DHT22;9573;50.948;11.600;2023-05-09T06:18:41;35.60;44.40
18882;DHT22;9573;50.948;11.600;2023-05-09T06:21:09;35.30;44.60
18882;DHT22;9573;50.948;11.600;2023-05-09T06:23:36;35.60;44.00
18882;DHT22;9573;50.948;11.600;2023-05-09T06:26:04;35.70;43.10
18882;DHT22;9573;50.948;11.600;2023-05-09T06:28:31;35.70;43.50
18882;DHT22;9573;50.948;11.600;2023-05-09T06:31:00;35.60;43.40
18882;DHT22;9573;50.948;11.600;2023-05-09T06:33:27;35.90;43.30
18882;DHT22;9573;50.948;11.600;2023-05-09T06:35:54;36.10;42.80
18882;DHT22;9573;50.948;11.600;2023-05-09T06:38:23;36.30;42.80
18882;DHT22;9573;50.948;11.600;2023-05-09T06:40:50;36.70;42.20
18882;DHT22;9573;50.948;11.600;2023-05-09T06:43:17;36.70;42.10
18882;DHT22;9573;50.948;11.600;2023-05-09T06:45:44;36.90;41.90
18882;DHT22;9573;50.948;11.600;2023-05-09T06:48:11;37.10;41.60
18882;DHT22;9573;50.948;11.600;2023-05-09T06:50:38;37.10;42.30
18882;DHT22;9573;50.948;11.600;2023-05-09T06:53:05;37.20;41.10
18882;DHT22;9573;50.948;11.600;2023-05-09T06:55:34;37.40;41.50
18882;DHT22;9573;50.948;11.600;2023-05-09T06:58:02;37.90;41.10
18882;DHT22;9573;50.948;11.600;2023-05-09T07:00:29;37.90;40.60
18882;DHT22;9573;50.948;11.600;2023-05-09T07:02:56;37.90;40.30
18882;DHT22;9573;50.948;11.600;2023-05-09T07:05:23;38.30;40.80
18882;DHT22;9573;50.948;11.600;2023-05-09T07:07:50;38.60;40.00
18882;DHT22;9573;50.948;11.600;2023-05-09T07:10:19;38.60;40.00
18882;DHT22;9573;50.948;11.600;2023-05-09T07:12:48;38.70;39.50
18882;DHT22;9573;50.948;11.600;2023-05-09T07:15:15;38.40;39.40
18882;DHT22;9573;50.948;11.600;2023-05-09T07:17:42;38.00;39.20
18882;DHT22;9573;50.948;11.600;2023-05-09T07:20:10;38.10;40.10
18882;DHT22;9573;50.948;11.600;2023-05-09T07:22:37;38.30;39.40
18882;DHT22;9573;50.948;11.600;2023-05-09T07:25:06;38.40;39.40
18882;DHT22;9573;50.948;11.600;2023-05-09T07:27:34;38.40;39.60
18882;DHT22;9573;50.948;11.600;2023-05-09T07:30:03;38.00;39.20
18882;DHT22;9573;50.948;11.600;2023-05-09T07:32:31;38.10;40.20
18882;DHT22;9573;50.948;11.600;2023-05-09T07:34:58;38.30;40.10
18882;DHT22;9573;50.948;11.600;2023-05-09T07:37:25;38.50;39.60
18882;DHT22;9573;50.948;11.600;2023-05-09T07:39:52;38.70;39.20
18882;DHT22;9573;50.948;11.600;2023-05-09T07:42:19;38.70;39.10
18882;DHT22;9573;50.948;11.600;2023-05-09T07:44:46;38.40;39.20
18882;DHT22;9573;50.948;11.600;2023-05-09T07:47:15;38.40;39.60
18882;DHT22;9573;50.948;11.600;2023-05-09T07:49:42;38.40;39.60
18882;DHT22;9573;50.948;11.600;2023-05-09T07:52:11;38.40;39.60
18882;DHT22;9573;50.948;11.600;2023-05-09T07:54:38;38.60;39.40
18882;DHT22;9573;50.948;11.600;2023-05-09T07:57:05;38.90;39.30
18882;DHT22;9573;50.948;11.600;2023-05-09T07:59:32;39.00;38.60
18882;DHT22;9573;50.948;11.600;2023-05-09T08:02:07;38.80;39.10
18882;DHT22;9573;50.948;11.600;2023-05-09T08:04:37;39.00;39.10
18882;DHT22;9573;50.948;11.600;2023-05-09T08:07:05;39.40;38.60
18882;DHT22;9573;50.948;11.600;2023-05-09T08:09:33;39.60;38.50
18882;DHT22;9573;50.948;11.600;2023-05-09T08:12:00;39.50;38.40
18882;DHT22;9573;50.948;11.600;2023-05-09T08:14:27;39.60;38.30
18882;DHT22;9573;50.948;11.600;2023-05-09T08:16:55;39.80;38.50
18882;DHT22;9573;50.948;11.600;2023-05-09T08:19:22;40.10;37.80
18882;DHT22;9573;50.948;11.600;2023-05-09T08:21:52;40.10;37.50
18882;DHT22;9573;50.948;11.600;2023-05-09T08:24:20;40.00;37.10
18882;DHT22;9573;50.948;11.600;2023-05-09T08:26:47;39.90;37.20
18882;DHT22;9573;50.948;11.600;2023-05-09T08:29:14;39.70;38.00
18882;DHT22;9573;50.948;11.600;2023-05-09T08:31:42;39.70;37.70
18882;DHT22;9573;50.948;11.600;2023-05-09T08:34:09;39.80;37.60
18882;DHT22;9573;50.948;11.600;2023-05-09T08:36:36;40.00;37.40
18882;DHT22;9573;50.948;11.600;2023-05-09T08:39:06;40.20;37.90
18882;DHT22;9573;50.948;11.600;2023-05-09T08:41:34;40.20;37.50
18882;DHT22;9573;50.948;11.600;2023-05-09T08:44:02;40.20;37.50
18882;DHT22;9573;50.948;11.600;2023-05-09T08:46:35;40.20;37.30
18882;DHT22;9573;50.948;11.600;2023-05-09T08:49:04;39.80;37.40
18882;DHT22;9573;50.948;11.600;2023-05-09T08:51:34;40.00;38.20
18882;DHT22;9573;50.948;11.600;2023-05-09T08:54:03;40.10;37.30
18882;DHT22;9573;50.948;11.600;2023-05-09T08:56:34;39.80;37.30
18882;DHT22;9573;50.948;11.600;2023-05-09T08:59:02;39.30;38.20
18882;DHT22;9573;50.948;11.600;2023-05-09T09:01:32;39.90;38.00
18882;DHT22;9573;50.948;11.600;2023-05-09T09:04:00;40.20;37.70
18882;DHT22;9573;50.948;11.600;2023-05-09T09:06:29;40.00;37.40
18882;DHT22;9573;50.948;11.600;2023-05-09T09:08:58;40.00;37.30
18882;DHT22;9573;50.948;11.600;2023-05-09T09:11:25;40.10;37.90
18882;DHT22;9573;50.948;11.600;2023-05-09T09:13:58;40.00;37.10
18882;DHT22;9573;50.948;11.600;2023-05-09T09:16:28;39.70;37.70
18882;DHT22;9573;50.948;11.600;2023-05-09T09:18:56;39.40;37.10
18882;DHT22;9573;50.948;11.600;2023-05-09T09:21:24;38.80;38.20
18882;DHT22;9573;50.948;11.600;2023-05-09T09:23:52;38.20;38.90
18882;DHT22;9573;50.948;11.600;2023-05-09T09:26:20;37.90;38.90
18882;DHT22;9573;50.948;11.600;2023-05-09T09:28:49;38.20;39.20
18882;DHT22;9573;50.948;11.600;2023-05-09T09:31:23;38.20;38.50
18882;DHT22;9573;50.948;11.600;2023-05-09T09:33:58;37.60;38.90
18882;DHT22;9573;50.948;11.600;2023-05-09T09:36:26;37.40;39.70
18882;DHT22;9573;50.948;11.600;2023-05-09T09:38:57;37.60;39.20
18882;DHT22;9573;50.948;11.600;2023-05-09T09:41:30;37.80;39.40
18882;DHT22;9573;50.948;11.600;2023-05-09T09:44:05;38.00;39.30
18882;DHT22;9573;50.948;11.600;2023-05-09T09:46:44;38.10;39.30
18882;DHT22;9573;50.948;11.600;2023-05-09T09:49:13;38.10;38.40
18882;DHT22;9573;50.948;11.600;2023-05-09T09:51:42;37.60;39.10
18882;DHT22;9573;50.948;11.600;2023-05-09T09:54:11;37.20;39.60
18882;DHT22;9573;50.948;11.600;2023-05-09T09:56:42;36.60;40.10
18882;DHT22;9573;50.948;11.600;2023-05-09T09:59:11;36.20;40.80
18882;DHT22;9573;50.948;11.600;2023-05-09T10:01:55;36.30;41.40
18882;DHT22;9573;50.948;11.600;2023-05-09T10:04:28;36.70;41.50
18882;DHT22;9573;50.948;11.600;2023-05-09T10:06:57;36.10;41.00
18882;DHT22;9573;50.948;11.600;2023-05-09T10:09:26;35.90;40.90
18882;DHT22;9573;50.948;11.600;2023-05-09T10:11:55;35.20;41.60
18882;DHT22;9573;50.948;11.600;2023-05-09T10:14:24;34.40;41.90
18882;DHT22;9573;50.948;11.600;2023-05-09T10:16:54;34.50;42.40
18882;DHT22;9573;50.948;11.600;2023-05-09T10:19:24;34.90;42.20
18882;DHT22;9573;50.948;11.600;2023-05-09T10:21:55;35.00;41.70
18882;DHT22;9573;50.948;11.600;2023-05-09T10:24:28;35.10;42.60
18882;DHT22;9573;50.948;11.600;2023-05-09T10:27:02;35.30;42.50
18882;DHT22;9573;50.948;11.600;2023-05-09T10:29:33;35.90;42.10
18882;DHT22;9573;50.948;11.600;2023-05-09T10:32:11;35.10;41.20
18882;DHT22;9573;50.948;11.600;2023-05-09T10:34:47;34.90;42.60
18882;DHT22;9573;50.948;11.600;2023-05-09T10:37:17;34.90;42.60
18882;DHT22;9573;50.948;11.600;2023-05-09T10:39:46;35.10;42.50
18882;DHT22;9573;50.948;11.600;2023-05-09T10:42:18;35.40;42.10
18882;DHT22;9573;50.948;11.600;2023-05-09T10:44:45;35.50;41.40
18882;DHT22;9573;50.948;11.600;2023-05-09T10:47:14;35.30;41.80
18882;DHT22;9573;50.948;11.600;2023-05-09T10:49:42;35.40;41.70
18882;DHT22;9573;50.948;11.600;2023-05-09T10:52:10;33.90;43.20
18882;DHT22;9573;50.948;11.600;2023-05-09T10:54:37;33.40;43.30
18882;DHT22;9573;50.948;11.600;2023-05-09T10:57:05;33.40;43.70
18882;DHT22;9573;50.948;11.600;2023-05-09T10:59:36;33.40;43.90
18882;DHT22;9573;50.948;11.600;2023-05-09T11:02:04;32.40;44.00
18882;DHT22;9573;50.948;11.600;2023-05-09T11:04:34;31.80;44.70
18882;DHT22;9573;50.948;11.600;2023-05-09T11:07:01;31.50;45.40
18882;DHT22;9573;50.948;11.600;2023-05-09T11:09:30;32.20;44.80
18882;DHT22;9573;50.948;11.600;2023-05-09T11:12:00;32.40;44.60
18882;DHT22;9573;50.948;11.600;2023-05-09T11:14:39;32.50;44.40
18882;DHT22;9573;50.948;11.600;2023-05-09T11:17:10;32.50;44.30
18882;DHT22;9573;50.948;11.600;2023-05-09T11:19:57;32.40;44.10
18882;DHT22;9573;50.948;11.600;2023-05-09T11:22:27;32.70;44.60
18882;DHT22;9573;50.948;11.600;2023-05-09T11:25:03;31.80;44.30
18882;DHT22;9573;50.948;11.600;2023-05-09T11:27:41;31.40;44.80
18882;DHT22;9573;50.948;11.600;2023-05-09T11:30:11;31.20;45.00
18882;DHT22;9573;50.948;11.600;2023-05-09T11:32:42;31.30;44.90
18882;DHT22;9573;50.948;11.600;2023-05-09T11:35:13;31.20;44.30
18882;DHT22;9573;50.948;11.600;2023-05-09T11:37:46;30.50;45.00
18882;DHT22;9573;50.948;11.600;2023-05-09T11:40:15;30.40;45.50
18882;DHT22;9573;50.948;11.600;2023-05-09T11:42:44;30.00;45.50
18882;DHT22;9573;50.948;11.600;2023-05-09T11:45:13;29.90;45.70
18882;DHT22;9573;50.948;11.600;2023-05-09T11:47:40;30.30;45.10
18882;DHT22;9573;50.948;11.600;2023-05-09T11:50:08;30.10;45.50
18882;DHT22;9573;50.948;11.600;2023-05-09T11:52:37;30.00;44.30
18882;DHT22;9573;50.948;11.600;2023-05-09T11:55:06;30.00;45.10
18882;DHT22;9573;50.948;11.600;2023-05-09T11:57:34;30.20;44.20
18882;DHT22;9573;50.948;11.600;2023-05-09T12:00:02;30.00;42.30
18882;DHT22;9573;50.948;11.600;2023-05-09T12:02:30;29.40;42.90
18882;DHT22;9573;50.948;11.600;2023-05-09T12:05:06;29.20;42.90
18882;DHT22;9573;50.948;11.600;2023-05-09T12:07:34;29.20;42.60
18882;DHT22;9573;50.948;11.600;2023-05-09T12:10:08;29.00;42.70
18882;DHT22;9573;50.948;11.600;2023-05-09T12:12:40;28.60;42.90
18882;DHT22;9573;50.948;11.600;2023-05-09T12:15:09;28.30;43.50
18882;DHT22;9573;50.948;11.600;2023-05-09T12:17:38;28.20;44.10
18882;DHT22;9573;50.948;11.600;2023-05-09T12:20:06;28.30;43.00
18882;DHT22;9573;50.948;11.600;2023-05-09T12:22:34;28.60;43.60
18882;DHT22;9573;50.948;11.600;2023-05-09T12:25:06;29.00;42.50
18882;DHT22;9573;50.948;11.600;2023-05-09T12:27:37;28.90;41.30
18882;DHT22;9573;50.948;11.600;2023-05-09T12:30:06;28.30;40.90
18882;DHT22;9573;50.948;11.600;2023-05-09T12:32:35;28.20;40.70
18882;DHT22;9573;50.948;11.600;2023-05-09T12:35:06;28.00;41.50
18882;DHT22;9573;50.948;11.600;2023-05-09T12:37:34;28.30;41.20
18882;DHT22;9573;50.948;11.600;2023-05-09T12:40:03;28.30;41.60
18882;DHT22;9573;50.948;11.600;2023-05-09T12:42:37;28.10;41.30
18882;DHT22;9573;50.948;11.600;2023-05-09T12:45:07;27.80;41.70
18882;DHT22;9573;50.948;11.600;2023-05-09T12:47:36;27.80;42.30
18882;DHT22;9573;50.948;11.600;2023-05-09T12:50:05;27.40;41.90
18882;DHT22;9573;50.948;11.600;2023-05-09T12:52:34;27.40;42.10
18882;DHT22;9573;50.948;11.600;2023-05-09T12:55:08;27.40;41.70
18882;DHT22;9573;50.948;11.600;2023-05-09T12:57:37;27.30;41.30
18882;DHT22;9573;50.948;11.600;2023-05-09T13:00:06;27.20;41.90
18882;DHT22;9573;50.948;11.600;2023-05-09T13:02:35;27.10;41.90
18882;DHT22;9573;50.948;11.600;2023-05-09T13:05:07;26.60;42.60
18882;DHT22;9573;50.948;11.600;2023-05-09T13:07:39;26.20;43.60
18882;DHT22;9573;50.948;11.600;2023-05-09T13:10:12;25.90;43.90
18882;DHT22;9573;50.948;11.600;2023-05-09T13:12:40;25.50;44.40
18882;DHT22;9573;50.948;11.600;2023-05-09T13:15:11;25.30;44.20
18882;DHT22;9573;50.948;11.600;2023-05-09T13:17:39;25.20;43.90
18882;DHT22;9573;50.948;11.600;2023-05-09T13:20:07;25.10;43.80
18882;DHT22;9573;50.948;11.600;2023-05-09T13:22:35;25.00;43.90
18882;DHT22;9573;50.948;11.600;2023-05-09T13:25:02;25.00;42.80
18882;DHT22;9573;50.948;11.600;2023-05-09T13:27:32;24.90;42.90
18882;DHT22;9573;50.948;11.600;2023-05-09T13:29:59;25.00;42.50
18882;DHT22;9573;50.948;11.600;2023-05-09T13:32:26;25.00;42.70
18882;DHT22;9573;50.948;11.600;2023-05-09T13:34:53;24.70;42.60
18882;DHT22;9573;50.948;11.600;2023-05-09T13:37:20;24.70;42.70
18882;DHT22;9573;50.948;11.600;2023-05-09T13:39:47;24.50;42.50
18882;DHT22;9573;50.948;11.600;2023-05-09T13:42:15;24.50;42.30
18882;DHT22;9573;50.948;11.600;2023-05-09T13:44:43;24.50;42.00
18882;DHT22;9573;50.948;11.600;2023-05-09T13:47:10;24.50;42.40
18882;DHT22;9573;50.948;11.600;2023-05-09T13:49:38;24.40;42.50
18882;DHT22;9573;50.948;11.600;2023-05-09T13:52:05;24.30;42.80
18882;DHT22;9573;50.948;11.600;2023-05-09T13:54:33;24.30;42.40
18882;DHT22;9573;50.948;11.600;2023-05-09T13:57:01;24.40;42.60
18882;DHT22;9573;50.948;11.600;2023-05-09T13:59:29;24.20;41.50
18882;DHT22;9573;50.948;11.600;2023-05-09T14:01:58;24.10;41.50
18882;DHT22;9573;50.948;11.600;2023-05-09T14:04:26;24.20;41.70
18882;DHT22;9573;50.948;11.600;2023-05-09T14:06:54;24.20;42.50
18882;DHT22;9573;50.948;11.600;2023-05-09T14:09:21;24.00;43.20
18882;DHT22;9573;50.948;11.600;2023-05-09T14:11:49;23.90;43.60
18882;DHT22;9573;50.948;11.600;2023-05-09T14:14:16;23.90;42.80
18882;DHT22;9573;50.948;11.600;2023-05-09T14:16:43;23.80;42.90
18882;DHT22;9573;50.948;11.600;2023-05-09T14:19:12;23.70;43.70
18882;DHT22;9573;50.948;11.600;2023-05-09T14:21:40;23.60;44.30
18882;DHT22;9573;50.948;11.600;2023-05-09T14:24:08;23.60;44.60
18882;DHT22;9573;50.948;11.600;2023-05-09T14:26:36;23.70;44.60
18882;DHT22;9573;50.948;11.600;2023-05-09T14:29:04;23.70;44.80
18882;DHT22;9573;50.948;11.600;2023-05-09T14:31:32;23.80;44.70
18882;DHT22;9573;50.948;11.600;2023-05-09T14:33:59;23.90;44.70
18882;DHT22;9573;50.948;11.600;2023-05-09T14:36:28;23.90;45.20
18882;DHT22;9573;50.948;11.600;2023-05-09T14:38:55;23.90;45.50
18882;DHT22;9573;50.948;11.600;2023-05-09T14:41:22;23.90;45.30
18882;DHT22;9573;50.948;11.600;2023-05-09T14:43:49;23.70;45.00
18882;DHT22;9573;50.948;11.600;2023-05-09T14:46:17;23.70;45.50
18882;DHT22;9573;50.948;11.600;2023-05-09T14:48:44;23.50;45.60
18882;DHT22;9573;50.948;11.600;2023-05-09T14:51:11;23.40;45.60
18882;DHT22;9573;50.948;11.600;2023-05-09T14:53:40;23.60;46.10
18882;DHT22;9573;50.948;11.600;2023-05-09T14:56:07;23.70;46.50
18882;DHT22;9573;50.948;11.600;2023-05-09T14:58:35;23.70;45.90
18882;DHT22;9573;50.948;11.600;2023-05-09T15:01:03;23.70;44.50
18882;DHT22;9573;50.948;11.600;2023-05-09T15:03:30;23.60;44.60
18882;DHT22;9573;50.948;11.600;2023-05-09T15:05:57;23.50;45.00
18882;DHT22;9573;50.948;11.600;2023-05-09T15:08:24;23.40;46.00
18882;DHT22;9573;50.948;11.600;2023-05-09T15:10:54;23.30;46.30
18882;DHT22;9573;50.948;11.600;2023-05-09T15:13:22;23.30;46.20
18882;DHT22;9573;50.948;11.600;2023-05-09T15:15:49;23.20;46.30
18882;DHT22;9573;50.948;11.600;2023-05-09T15:18:16;23.30;46.00
18882;DHT22;9573;50.948;11.600;2023-05-09T15:20:44;23.30;46.00
18882;DHT22;9573;50.948;11.600;2023-05-09T15:23:11;23.20;47.00
18882;DHT22;9573;50.948;11.600;2023-05-09T15:25:40;23.40;46.90
18882;DHT22;9573;50.948;11.600;2023-05-09T15:28:09;23.40;47.10
18882;DHT22;9573;50.948;11.600;2023-05-09T15:30:36;23.50;47.10
18882;DHT22;9573;50.948;11.600;2023-05-09T15:33:05;23.50;47.20
18882;DHT22;9573;50.948;11.600;2023-05-09T15:35:32;23.40;47.70
18882;DHT22;9573;50.948;11.600;2023-05-09T15:38:00;23.30;47.90
18882;DHT22;9573;50.948;11.600;2023-05-09T15:40:27;23.40;48.30
18882;DHT22;9573;50.948;11.600;2023-05-09T15:42:54;23.30;48.30
18882;DHT22;9573;50.948;11.600;2023-05-09T15:45:22;23.30;48.10